Time;durP1;ratioP1;P1;durP2;ratioP2;P2;SDS_P1;SDS_P2;PMS_P1;PMS_P2;Temp;Humidity;BMP_temperature;BMP_pressure;BME280_temperature;BME280_humidity;BME280_pressure;Samples;Min_cycle;Max_cycle;Signal;HPM_P1;HPM_P2
2024/05/07 00:00:07;;;;;;;0.60;0.60;;;12.70;99.90;;;;;;5407588;26;20301;-81
2024/05/07 00:02:36;;;;;;;0.50;0.50;;;12.70;99.90;;;;;;5404358;26;20250;-81
2024/05/07 00:05:05;;;;;;;2.50;0.70;;;12.70;99.90;;;;;;5404592;26;20717;-81
2024/05/07 00:07:33;;;;;;;0.70;0.70;;;12.70;99.90;;;;;;5394491;26;20257;-81
2024/05/07 00:10:02;;;;;;;0.60;0.60;;;12.80;99.90;;;;;;5406877;26;20245;-81
2024/05/07 00:12:31;;;;;;;0.70;0.70;;;12.70;99.90;;;;;;5413032;26;20349;-81
2024/05/07 00:14:59;;;;;;;0.50;0.50;;;12.70;99.90;;;;;;5414842;26;20241;-81
2024/05/07 00:17:31;;;;;;;0.50;0.50;;;12.60;99.90;;;;;;5414437;26;20338;-82
2024/05/07 00:20:00;;;;;;;0.63;0.63;;;12.70;99.90;;;;;;5415711;26;20345;-81
2024/05/07 00:22:29;;;;;;;0.87;0.50;;;12.70;99.90;;;;;;5406265;26;20249;-81
2024/05/07 00:24:58;;;;;;;0.50;0.50;;;12.70;99.90;;;;;;5408878;26;20246;-81
2024/05/07 00:27:26;;;;;;;1.60;0.50;;;12.80;99.90;;;;;;5408627;26;20238;-82
2024/05/07 00:29:55;;;;;;;0.60;0.60;;;12.80;99.90;;;;;;5411693;26;20318;-81
2024/05/07 00:32:24;;;;;;;0.63;0.47;;;12.80;99.90;;;;;;5417042;26;20283;-82
2024/05/07 00:34:55;;;;;;;0.57;0.57;;;12.80;99.90;;;;;;5398039;26;20242;-81
2024/05/07 00:37:24;;;;;;;0.50;0.50;;;12.80;99.90;;;;;;5394963;26;20327;-82
2024/05/07 00:39:53;;;;;;;2.55;0.45;;;12.90;99.90;;;;;;5402285;26;20258;-81
2024/05/07 00:42:21;;;;;;;0.68;0.50;;;12.90;99.90;;;;;;5406838;26;20242;-81
2024/05/07 00:44:50;;;;;;;0.50;0.40;;;12.70;99.90;;;;;;5408566;26;20299;-81
2024/05/07 00:47:19;;;;;;;0.63;0.40;;;12.70;99.90;;;;;;5414730;26;20281;-81
2024/05/07 00:49:47;;;;;;;0.55;0.55;;;12.70;99.90;;;;;;5409851;26;20368;-81
2024/05/07 00:52:19;;;;;;;0.52;0.52;;;12.70;99.90;;;;;;5414929;26;20354;-81
2024/05/07 00:54:48;;;;;;;0.50;0.50;;;12.70;99.90;;;;;;5415687;26;20238;-81
2024/05/07 00:57:17;;;;;;;0.63;0.60;;;12.80;99.90;;;;;;5414492;26;20289;-82
2024/05/07 00:59:45;;;;;;;1.40;0.60;;;12.80;99.90;;;;;;5399168;26;20343;-81
2024/05/07 01:02:14;;;;;;;1.10;0.63;;;12.80;99.90;;;;;;5411499;26;20611;-81
2024/05/07 01:04:43;;;;;;;1.85;0.65;;;12.80;99.90;;;;;;5415003;26;20606;-82
2024/05/07 01:07:12;;;;;;;1.25;0.70;;;12.70;99.90;;;;;;5410543;26;20374;-81
2024/05/07 01:09:44;;;;;;;2.77;0.97;;;12.60;99.90;;;;;;5408343;26;20716;-81
2024/05/07 01:12:13;;;;;;;2.57;0.80;;;12.60;99.90;;;;;;5399352;26;20289;-81
2024/05/07 01:14:42;;;;;;;1.00;0.90;;;12.60;99.90;;;;;;5407574;26;20724;-82
2024/05/07 01:17:10;;;;;;;0.80;0.80;;;12.60;99.90;;;;;;5411132;26;20359;-81
2024/05/07 01:19:39;;;;;;;1.57;1.20;;;12.60;99.90;;;;;;5404411;26;20793;-81
2024/05/07 01:22:09;;;;;;;0.80;0.80;;;12.60;99.90;;;;;;5407579;26;20250;-82
2024/05/07 01:24:40;;;;;;;0.77;0.77;;;12.60;99.90;;;;;;5407071;26;20233;-81
2024/05/07 01:27:09;;;;;;;0.70;0.70;;;12.60;99.90;;;;;;5415041;26;20289;-81
2024/05/07 01:29:41;;;;;;;0.90;0.90;;;12.60;99.90;;;;;;5403232;26;20258;-82
2024/05/07 01:32:10;;;;;;;0.90;0.90;;;12.50;99.90;;;;;;5395444;26;20688;-81
2024/05/07 01:34:39;;;;;;;0.68;0.68;;;12.50;99.90;;;;;;5410206;26;20241;-81
2024/05/07 01:37:07;;;;;;;0.65;0.65;;;12.50;99.90;;;;;;5398620;26;20587;-81
2024/05/07 01:39:36;;;;;;;0.60;0.60;;;12.60;99.90;;;;;;5411044;26;20337;-81
2024/05/07 01:42:09;;;;;;;1.27;0.85;;;12.50;99.90;;;;;;5411738;26;20245;-82
2024/05/07 01:44:37;;;;;;;0.90;0.90;;;12.50;99.90;;;;;;5398069;26;20238;-82
2024/05/07 01:47:03;;;;;;;1.03;1.00;;;12.40;99.90;;;;;;5408506;26;20241;-81
2024/05/07 01:49:32;;;;;;;1.60;0.80;;;12.30;99.90;;;;;;5407353;26;20734;-82
2024/05/07 01:52:01;;;;;;;2.77;0.80;;;12.30;99.90;;;;;;5411598;26;20329;-83
2024/05/07 01:54:29;;;;;;;1.07;0.97;;;12.30;99.90;;;;;;5416604;26;20241;-82
2024/05/07 01:56:58;;;;;;;0.60;0.60;;;12.30;99.90;;;;;;5401603;26;20781;-82
2024/05/07 01:59:29;;;;;;;0.60;0.60;;;12.40;99.90;;;;;;5395949;26;20298;-82
2024/05/07 02:01:58;;;;;;;1.00;1.00;;;12.40;99.90;;;;;;5399619;26;20238;-82
2024/05/07 02:04:27;;;;;;;0.77;0.77;;;12.40;99.90;;;;;;5411743;26;20296;-83
2024/05/07 02:07:01;;;;;;;0.97;0.93;;;12.50;99.90;;;;;;5416805;26;20241;-82
2024/05/07 02:09:30;;;;;;;1.17;0.93;;;12.60;99.90;;;;;;5395343;26;20241;-84
2024/05/07 02:11:59;;;;;;;1.57;1.00;;;12.50;99.90;;;;;;5416612;26;20705;-82
2024/05/07 02:14:32;;;;;;;1.50;1.40;;;12.50;99.90;;;;;;5393686;26;20355;-82
2024/05/07 02:17:00;;;;;;;1.67;1.57;;;12.40;99.90;;;;;;5416568;26;20826;-81
2024/05/07 02:19:29;;;;;;;1.60;1.40;;;12.30;99.90;;;;;;5416420;26;20362;-82
2024/05/07 02:21:58;;;;;;;1.37;1.37;;;12.30;99.90;;;;;;5416547;26;20237;-82
2024/05/07 02:24:26;;;;;;;1.10;1.10;;;12.30;99.90;;;;;;5407767;26;20333;-82
2024/05/07 02:26:55;;;;;;;0.73;0.73;;;12.30;99.90;;;;;;5409647;26;20306;-82
2024/05/07 02:29:24;;;;;;;0.97;0.73;;;12.30;99.90;;;;;;5415782;26;20379;-83
2024/05/07 02:31:55;;;;;;;1.13;0.60;;;12.30;99.90;;;;;;5402058;26;20298;-82
2024/05/07 02:34:21;;;;;;;0.63;0.63;;;12.20;99.90;;;;;;5406381;26;20242;-82
2024/05/07 02:36:50;;;;;;;0.50;0.50;;;12.20;99.90;;;;;;5409362;26;20257;-82
2024/05/07 02:39:21;;;;;;;0.50;0.50;;;12.20;99.90;;;;;;5417286;26;20383;-82
2024/05/07 02:41:47;;;;;;;1.43;0.50;;;12.00;99.90;;;;;;5397349;26;20751;-82
2024/05/07 02:44:16;;;;;;;0.40;0.40;;;11.90;99.90;;;;;;5414769;26;20245;-82
2024/05/07 02:46:44;;;;;;;0.70;0.60;;;11.90;99.90;;;;;;5406271;26;20347;-82
2024/05/07 02:49:16;;;;;;;0.70;0.70;;;12.00;99.90;;;;;;5405463;26;20241;-82
2024/05/07 02:51:44;;;;;;;0.73;0.73;;;12.00;99.90;;;;;;5404213;26;20286;-83
2024/05/07 02:54:13;;;;;;;1.00;1.00;;;12.10;99.90;;;;;;5412404;26;20238;-82
2024/05/07 02:56:42;;;;;;;1.30;1.30;;;12.20;99.90;;;;;;5422782;26;20349;-82
2024/05/07 02:59:11;;;;;;;1.17;1.07;;;12.20;99.90;;;;;;5414295;26;20706;-82
2024/05/07 03:01:40;;;;;;;1.30;1.20;;;12.30;99.90;;;;;;5402812;26;20238;-83
2024/05/07 03:04:09;;;;;;;0.93;0.93;;;12.30;99.90;;;;;;5415989;26;20673;-82
2024/05/07 03:06:43;;;;;;;1.10;1.00;;;12.30;99.90;;;;;;5415743;26;20744;-82
2024/05/07 03:09:11;;;;;;;0.80;0.80;;;12.50;99.90;;;;;;5415140;26;20248;-83
2024/05/07 03:11:40;;;;;;;1.50;1.17;;;12.50;99.90;;;;;;5427600;26;20233;-83
2024/05/07 03:14:09;;;;;;;0.70;0.65;;;12.50;99.90;;;;;;5418849;26;20603;-82
2024/05/07 03:16:39;;;;;;;0.67;0.67;;;12.40;99.90;;;;;;5408766;26;20568;-83
2024/05/07 03:19:11;;;;;;;1.85;0.70;;;12.50;99.90;;;;;;5415295;26;20245;-83
2024/05/07 03:21:44;;;;;;;1.07;0.97;;;12.50;99.90;;;;;;5412777;26;20272;-83
2024/05/07 03:24:12;;;;;;;0.70;0.70;;;12.60;99.90;;;;;;5406528;26;20230;-83
2024/05/07 03:26:41;;;;;;;0.50;0.50;;;12.50;99.90;;;;;;5411439;26;20238;-83
2024/05/07 03:29:14;;;;;;;0.68;0.60;;;12.50;99.90;;;;;;5415344;26;20323;-82
2024/05/07 03:31:43;;;;;;;0.70;0.70;;;12.50;99.90;;;;;;5411124;26;20284;-83
2024/05/07 03:34:13;;;;;;;0.97;0.57;;;12.50;99.90;;;;;;5422474;26;20280;-83
2024/05/07 03:36:50;;;;;;;0.70;0.70;;;12.40;99.90;;;;;;5392576;26;20615;-83
2024/05/07 03:39:19;;;;;;;0.60;0.60;;;12.40;99.90;;;;;;5402555;26;20763;-83
2024/05/07 03:41:48;;;;;;;0.85;0.85;;;12.40;99.90;;;;;;5418236;26;20245;-82
2024/05/07 03:44:18;;;;;;;0.57;0.57;;;12.40;99.90;;;;;;5418584;26;20804;-83
2024/05/07 03:46:47;;;;;;;0.60;0.60;;;12.40;99.90;;;;;;5411329;26;20584;-83
2024/05/07 03:49:16;;;;;;;0.60;0.60;;;12.20;99.90;;;;;;5416625;26;20853;-83
2024/05/07 03:51:48;;;;;;;0.63;0.63;;;12.30;99.90;;;;;;5417671;26;20238;-83
2024/05/07 03:54:16;;;;;;;2.73;0.50;;;12.30;99.90;;;;;;5429514;26;20591;-83
2024/05/07 03:56:45;;;;;;;0.60;0.45;;;12.40;99.90;;;;;;5406043;26;20298;-82
2024/05/07 03:59:15;;;;;;;0.50;0.50;;;12.50;99.90;;;;;;5416472;26;20272;-83
2024/05/07 04:01:47;;;;;;;0.90;0.73;;;12.40;99.90;;;;;;5414862;26;20276;-82
2024/05/07 04:04:16;;;;;;;1.20;1.10;;;12.40;99.90;;;;;;5418761;26;20585;-82
2024/05/07 04:06:48;;;;;;;8.27;4.33;;;12.40;99.90;;;;;;5418403;26;20803;-83
2024/05/07 04:09:16;;;;;;;3.28;2.58;;;12.50;99.90;;;;;;5418162;26;20245;-83
2024/05/07 04:11:46;;;;;;;1.53;1.43;;;12.50;99.90;;;;;;5418477;26;20268;-82
2024/05/07 04:14:14;;;;;;;1.53;1.43;;;12.50;99.90;;;;;;5411707;26;20304;-83
2024/05/07 04:16:43;;;;;;;1.47;1.30;;;12.50;99.90;;;;;;5414325;26;20267;-82
2024/05/07 04:19:12;;;;;;;1.40;1.30;;;12.50;99.90;;;;;;5393917;26;20285;-85
2024/05/07 04:21:40;;;;;;;0.90;0.90;;;12.50;99.90;;;;;;5418318;26;20251;-83
2024/05/07 04:24:12;;;;;;;0.93;0.80;;;12.40;99.90;;;;;;5417916;26;20234;-84
2024/05/07 04:26:41;;;;;;;1.20;1.10;;;12.40;99.90;;;;;;5418142;26;20259;-84
2024/05/07 04:29:09;;;;;;;1.43;0.90;;;12.40;99.90;;;;;;5416065;26;20936;-83
2024/05/07 04:31:38;;;;;;;2.43;0.80;;;12.30;99.90;;;;;;5412828;26;20284;-83
2024/05/07 04:34:07;;;;;;;1.10;0.80;;;12.30;99.90;;;;;;5418021;26;20767;-83
2024/05/07 04:36:35;;;;;;;0.80;0.80;;;12.40;99.90;;;;;;5417893;26;20293;-83
2024/05/07 04:39:04;;;;;;;0.70;0.70;;;12.50;99.90;;;;;;5417740;26;20253;-83
2024/05/07 04:41:35;;;;;;;0.90;0.90;;;12.50;99.90;;;;;;5417866;26;20237;-83
2024/05/07 04:44:04;;;;;;;1.90;0.77;;;12.50;99.90;;;;;;5382781;26;20245;-83
2024/05/07 04:46:33;;;;;;;0.88;0.88;;;12.50;99.90;;;;;;5401865;26;20233;-84
2024/05/07 04:49:01;;;;;;;0.70;0.70;;;12.50;99.90;;;;;;5415176;26;20293;-84
2024/05/07 04:51:30;;;;;;;0.85;0.85;;;12.50;99.90;;;;;;5421383;26;20316;-83
2024/05/07 04:53:59;;;;;;;1.58;0.90;;;12.50;99.90;;;;;;5400303;26;20578;-83
2024/05/07 04:56:27;;;;;;;1.27;0.98;;;12.50;99.90;;;;;;5403537;26;20333;-83
2024/05/07 04:58:59;;;;;;;1.10;1.00;;;12.50;99.90;;;;;;5417330;26;21073;-84
2024/05/07 05:01:28;;;;;;;0.90;0.90;;;12.50;99.90;;;;;;5400200;26;20698;-83
2024/05/07 05:03:56;;;;;;;0.80;0.80;;;12.50;99.90;;;;;;5417292;26;20696;-83
2024/05/07 05:06:25;;;;;;;0.93;0.87;;;12.60;99.90;;;;;;5417353;26;20298;-83
2024/05/07 05:08:54;;;;;;;1.03;0.90;;;12.70;99.90;;;;;;5409106;26;20238;-83
2024/05/07 05:11:25;;;;;;;1.40;0.90;;;12.60;99.90;;;;;;5404091;26;20371;-83
2024/05/07 05:13:54;;;;;;;1.03;0.90;;;12.50;99.90;;;;;;5417201;26;20667;-83
2024/05/07 05:16:25;;;;;;;1.13;0.88;;;12.60;99.90;;;;;;5409088;26;20284;-83
2024/05/07 05:18:54;;;;;;;0.93;0.93;;;12.60;99.90;;;;;;5388019;26;20259;-83
2024/05/07 05:21:23;;;;;;;1.02;1.00;;;12.50;99.90;;;;;;5403662;26;20333;-83
2024/05/07 05:23:52;;;;;;;2.15;1.10;;;12.60;99.90;;;;;;5405059;26;20260;-84
2024/05/07 05:26:20;;;;;;;0.90;0.90;;;12.70;99.90;;;;;;5407700;26;20253;-83
2024/05/07 05:28:49;;;;;;;0.90;0.90;;;12.70;99.90;;;;;;5416040;26;20346;-83
2024/05/07 05:31:19;;;;;;;1.60;1.08;;;12.70;99.90;;;;;;5418314;26;20287;-83
2024/05/07 05:33:51;;;;;;;1.30;1.20;;;12.70;99.90;;;;;;5407253;26;20237;-84
2024/05/07 05:36:19;;;;;;;1.05;0.90;;;12.60;99.90;;;;;;5415745;26;20293;-84
2024/05/07 05:38:48;;;;;;;1.07;1.07;;;12.60;99.90;;;;;;5399227;26;20791;-83
2024/05/07 05:41:17;;;;;;;1.43;1.10;;;12.60;99.90;;;;;;5416781;26;20234;-83
2024/05/07 05:43:46;;;;;;;0.97;0.97;;;12.50;99.90;;;;;;5417060;26;20591;-83
2024/05/07 05:46:14;;;;;;;0.93;0.93;;;12.60;99.90;;;;;;5482429;21;21097;-88
2024/05/07 05:48:43;;;;;;;0.90;0.90;;;12.70;99.90;;;;;;5415809;26;20333;-89
2024/05/07 05:51:14;;;;;;;1.10;1.00;;;12.70;99.90;;;;;;5400123;26;20314;-88
2024/05/07 05:53:43;;;;;;;1.20;1.10;;;12.80;99.90;;;;;;5415821;26;20396;-85
2024/05/07 05:56:12;;;;;;;1.43;1.10;;;12.80;99.90;;;;;;5413393;26;20329;-85
2024/05/07 05:58:40;;;;;;;1.70;1.60;;;12.80;99.90;;;;;;5414028;26;20309;-85
2024/05/07 06:01:09;;;;;;;2.47;2.13;;;12.90;99.90;;;;;;5410176;26;20363;-85
2024/05/07 06:03:41;;;;;;;1.80;1.70;;;12.90;99.90;;;;;;5417128;26;20288;-84
2024/05/07 06:06:09;;;;;;;2.00;1.85;;;13.00;99.90;;;;;;5401952;26;20848;-84
2024/05/07 06:08:44;;;;;;;3.40;1.98;;;13.10;99.90;;;;;;5407284;26;20241;-85
2024/05/07 06:11:16;;;;;;;2.55;1.80;;;13.10;99.90;;;;;;5413535;26;20354;-86
2024/05/07 06:13:45;;;;;;;1.85;1.75;;;13.20;99.90;;;;;;5412465;26;20343;-85
2024/05/07 06:16:14;;;;;;;2.72;1.95;;;13.30;99.90;;;;;;5419001;26;20304;-84
2024/05/07 06:18:42;;;;;;;1.83;1.67;;;13.40;99.90;;;;;;5407779;26;20580;-84
2024/05/07 06:21:14;;;;;;;2.70;1.65;;;13.40;99.90;;;;;;5398240;26;20330;-82
2024/05/07 06:23:45;;;;;;;3.08;1.60;;;13.40;99.90;;;;;;5417655;26;20333;-82
2024/05/07 06:26:14;;;;;;;1.80;1.58;;;13.40;99.90;;;;;;5415103;26;20293;-82
2024/05/07 06:28:49;;;;;;;1.73;1.33;;;13.40;99.90;;;;;;5418095;26;20289;-81
2024/05/07 06:31:19;;;;;;;1.45;1.35;;;13.40;99.90;;;;;;5388636;26;20296;-80
2024/05/07 06:33:47;;;;;;;2.15;1.10;;;13.30;99.90;;;;;;5399045;26;20272;-81
2024/05/07 06:36:16;;;;;;;1.75;1.48;;;13.20;99.90;;;;;;5406071;26;20256;-81
2024/05/07 06:38:50;;;;;;;1.80;1.20;;;13.20;99.90;;;;;;5407439;26;20310;-81
2024/05/07 06:41:21;;;;;;;2.75;1.40;;;13.30;99.90;;;;;;5414657;26;20271;-81
2024/05/07 06:43:51;;;;;;;2.05;1.48;;;13.40;99.90;;;;;;5412848;26;20560;-81
2024/05/07 06:46:20;;;;;;;1.50;1.40;;;13.40;99.90;;;;;;5408358;26;20751;-82
2024/05/07 06:48:51;;;;;;;3.38;1.80;;;13.50;99.90;;;;;;5415682;26;20336;-84
2024/05/07 06:51:20;;;;;;;2.03;1.83;;;13.50;99.90;;;;;;5416163;26;20241;-86
2024/05/07 06:53:51;;;;;;;3.80;2.08;;;13.60;99.90;;;;;;5416581;26;20370;-86
2024/05/07 06:56:20;;;;;;;1.67;1.58;;;13.60;99.90;;;;;;5401667;26;20241;-86
2024/05/07 06:58:48;;;;;;;2.00;1.83;;;13.50;99.90;;;;;;5416643;26;20272;-85
2024/05/07 07:01:17;;;;;;;3.45;1.88;;;13.70;99.90;;;;;;5417263;26;20342;-86
2024/05/07 07:03:46;;;;;;;1.70;1.60;;;13.70;99.90;;;;;;5414715;26;20678;-86
2024/05/07 07:06:15;;;;;;;1.80;1.42;;;13.80;99.90;;;;;;5415695;26;20748;-86
2024/05/07 07:08:43;;;;;;;2.20;1.60;;;13.80;99.90;;;;;;5414355;26;20340;-87
2024/05/07 07:11:15;;;;;;;2.13;1.73;;;13.70;99.90;;;;;;5414855;26;20242;-86
2024/05/07 07:13:45;;;;;;;3.00;1.77;;;13.60;99.90;;;;;;5418266;26;20260;-87
2024/05/07 07:16:14;;;;;;;2.20;1.90;;;13.70;99.90;;;;;;5406956;26;20700;-86
2024/05/07 07:18:43;;;;;;;2.38;1.90;;;13.80;99.90;;;;;;5418480;26;20397;-86
2024/05/07 07:21:13;;;;;;;2.00;1.90;;;13.90;99.90;;;;;;5415780;26;20333;-87
2024/05/07 07:23:42;;;;;;;2.40;2.20;;;13.90;99.90;;;;;;5418416;26;20249;-85
2024/05/07 07:26:10;;;;;;;1.70;1.60;;;14.00;99.90;;;;;;5417160;26;20300;-85
2024/05/07 07:28:44;;;;;;;1.90;1.75;;;14.00;99.90;;;;;;5411984;26;20280;-87
2024/05/07 07:31:13;;;;;;;2.17;1.70;;;14.00;99.90;;;;;;5394081;26;20249;-87
2024/05/07 07:33:42;;;;;;;3.05;2.10;;;14.10;99.90;;;;;;5400328;26;20242;-87
2024/05/07 07:36:11;;;;;;;2.00;1.80;;;14.20;99.90;;;;;;5393927;26;20260;-87
2024/05/07 07:38:44;;;;;;;2.25;1.77;;;14.20;99.90;;;;;;5418345;26;20775;-86
2024/05/07 07:41:12;;;;;;;1.92;1.80;;;14.40;99.90;;;;;;5422057;26;20276;-86
2024/05/07 07:43:44;;;;;;;3.38;1.75;;;14.50;99.90;;;;;;5414562;26;20253;-86
2024/05/07 07:46:13;;;;;;;2.95;2.00;;;14.70;99.90;;;;;;5418049;26;20245;-87
2024/05/07 07:48:41;;;;;;;1.98;1.80;;;14.80;99.90;;;;;;5418391;26;20920;-86
2024/05/07 07:51:10;;;;;;;2.72;1.83;;;14.90;99.90;;;;;;5410901;26;20241;-86
2024/05/07 07:53:39;;;;;;;2.03;1.83;;;14.90;99.90;;;;;;5424750;26;20309;-86
2024/05/07 07:56:14;;;;;;;1.70;1.60;;;14.90;99.90;;;;;;5417675;26;20284;-86
2024/05/07 07:58:45;;;;;;;2.13;1.83;;;14.90;99.90;;;;;;5418023;26;20578;-86
2024/05/07 08:01:14;;;;;;;3.42;1.90;;;14.90;99.90;;;;;;5418693;26;20245;-84
2024/05/07 08:03:43;;;;;;;4.35;2.05;;;14.80;99.90;;;;;;5415085;26;20362;-87
2024/05/07 08:06:12;;;;;;;2.38;1.98;;;14.70;99.90;;;;;;5419269;26;20288;-87
2024/05/07 08:08:40;;;;;;;2.10;1.60;;;14.60;99.90;;;;;;5413718;26;20305;-86
2024/05/07 08:11:09;;;;;;;1.85;1.42;;;14.70;99.90;;;;;;5418958;26;20711;-87
2024/05/07 08:13:38;;;;;;;1.83;1.50;;;14.80;99.90;;;;;;5419186;26;20816;-87
2024/05/07 08:16:10;;;;;;;2.25;1.98;;;14.80;99.90;;;;;;5411365;26;20242;-86
2024/05/07 08:18:39;;;;;;;2.25;1.80;;;14.80;99.90;;;;;;5419111;26;20337;-86
2024/05/07 08:21:08;;;;;;;2.20;2.00;;;14.70;99.90;;;;;;5412072;26;20237;-87
2024/05/07 08:23:37;;;;;;;2.45;1.73;;;14.60;99.90;;;;;;5418760;26;20700;-86
2024/05/07 08:26:11;;;;;;;1.95;1.67;;;14.50;99.90;;;;;;5403604;26;20627;-87
2024/05/07 08:28:40;;;;;;;1.77;1.67;;;14.60;99.90;;;;;;5408178;26;20271;-86
2024/05/07 08:31:11;;;;;;;2.33;1.60;;;14.60;99.90;;;;;;5393758;26;20370;-86
2024/05/07 08:33:40;;;;;;;3.17;1.90;;;14.60;99.90;;;;;;5394283;26;20241;-86
2024/05/07 08:36:09;;;;;;;2.42;1.95;;;14.50;99.90;;;;;;5410752;26;20620;-87
2024/05/07 08:38:39;;;;;;;2.20;1.80;;;14.50;99.90;;;;;;5413940;26;20234;-86
2024/05/07 08:41:12;;;;;;;2.13;1.90;;;14.50;99.90;;;;;;5417107;26;20296;-86
2024/05/07 08:43:42;;;;;;;3.72;1.70;;;14.60;99.90;;;;;;5420266;26;20342;-86
2024/05/07 08:46:13;;;;;;;4.30;2.20;;;14.50;99.90;;;;;;5413077;26;20755;-86
2024/05/07 08:48:43;;;;;;;2.15;1.95;;;14.50;99.90;;;;;;5434490;26;20248;-86
2024/05/07 08:51:12;;;;;;;2.42;1.92;;;14.60;99.90;;;;;;5417980;26;20371;-86
2024/05/07 08:53:41;;;;;;;2.97;1.95;;;14.70;99.90;;;;;;5418466;26;20226;-86
2024/05/07 08:56:10;;;;;;;2.72;1.77;;;14.70;99.90;;;;;;5419896;26;20230;-86
2024/05/07 08:58:39;;;;;;;3.00;2.00;;;14.80;99.90;;;;;;5419716;26;20584;-86
2024/05/07 09:01:08;;;;;;;2.05;1.80;;;14.80;99.90;;;;;;5414892;26;20810;-87
2024/05/07 09:03:46;;;;;;;2.13;1.90;;;14.80;99.90;;;;;;5421478;26;20249;-87
2024/05/07 09:06:14;;;;;;;2.05;1.60;;;14.90;99.90;;;;;;5407733;26;20351;-86
2024/05/07 09:08:49;;;;;;;2.47;1.85;;;15.00;99.90;;;;;;5417691;26;20431;-87
2024/05/07 09:11:22;;;;;;;1.60;1.50;;;15.10;99.90;;;;;;5400510;26;20313;-86
2024/05/07 09:13:52;;;;;;;2.38;1.58;;;15.20;99.90;;;;;;5417446;26;20869;-86
2024/05/07 09:16:21;;;;;;;1.85;1.75;;;15.20;99.90;;;;;;5408216;26;20280;-86
2024/05/07 09:18:52;;;;;;;1.77;1.60;;;15.20;99.90;;;;;;5417948;26;20288;-87
2024/05/07 09:21:21;;;;;;;2.92;1.63;;;15.10;99.90;;;;;;5417388;26;20579;-87
2024/05/07 09:23:50;;;;;;;1.58;1.48;;;15.20;99.90;;;;;;5418221;26;20329;-87
2024/05/07 09:26:18;;;;;;;2.08;1.75;;;15.30;99.90;;;;;;5418276;26;20260;-87
2024/05/07 09:28:47;;;;;;;2.45;2.03;;;15.40;99.90;;;;;;5418206;26;20367;-87
2024/05/07 09:31:17;;;;;;;2.65;2.13;;;15.50;99.90;;;;;;5426851;26;20822;-87
2024/05/07 09:33:50;;;;;;;1.27;1.17;;;15.50;99.90;;;;;;5417518;26;20289;-87
2024/05/07 09:36:22;;;;;;;1.60;1.50;;;15.40;99.90;;;;;;5394328;26;20788;-87
2024/05/07 09:38:52;;;;;;;1.67;1.58;;;15.40;99.90;;;;;;5405936;26;20305;-86
2024/05/07 09:41:31;;;;;;;1.88;1.73;;;15.30;99.90;;;;;;5417612;26;20652;-87
2024/05/07 09:44:01;;;;;;;2.15;1.48;;;15.30;99.90;;;;;;5417189;26;20290;-87
2024/05/07 09:46:37;;;;;;;1.80;1.70;;;15.20;99.90;;;;;;5417456;26;20277;-88
2024/05/07 09:49:08;;;;;;;2.35;1.50;;;15.20;99.90;;;;;;5417531;26;20720;-86
2024/05/07 09:51:40;;;;;;;1.50;1.40;;;15.10;99.90;;;;;;5418350;26;20353;-88
2024/05/07 09:54:09;;;;;;;3.50;1.70;;;15.00;99.90;;;;;;5417736;26;20229;-87
2024/05/07 09:56:40;;;;;;;2.17;1.42;;;15.10;99.90;;;;;;5418190;26;20226;-87
2024/05/07 09:59:10;;;;;;;2.30;1.80;;;15.10;99.90;;;;;;5417797;26;20261;-86
2024/05/07 10:01:39;;;;;;;1.92;1.83;;;15.10;99.90;;;;;;5417991;26;20349;-86
2024/05/07 10:04:08;;;;;;;2.35;1.80;;;15.20;99.90;;;;;;5417670;26;20263;-87
2024/05/07 10:06:40;;;;;;;2.90;1.80;;;15.20;99.90;;;;;;5417374;26;20300;-88
2024/05/07 10:09:20;;;;;;;2.05;1.80;;;15.10;99.90;;;;;;5417209;26;20329;-87
2024/05/07 10:11:49;;;;;;;3.88;1.48;;;15.10;99.90;;;;;;5387690;26;20352;-88
2024/05/07 10:14:19;;;;;;;1.98;1.73;;;15.30;99.90;;;;;;5387138;26;20225;-87
2024/05/07 10:16:48;;;;;;;1.55;1.40;;;15.50;99.90;;;;;;5417730;26;20284;-88
2024/05/07 10:19:19;;;;;;;1.50;1.40;;;15.60;99.90;;;;;;5417825;26;20305;-87
2024/05/07 10:21:51;;;;;;;1.65;1.55;;;15.60;99.90;;;;;;5416982;26;20289;-87
2024/05/07 10:24:20;;;;;;;2.15;1.40;;;15.80;99.90;;;;;;5417760;26;20285;-87
2024/05/07 10:27:01;;;;;;;3.13;1.48;;;15.80;99.90;;;;;;5417403;26;20229;-87
2024/05/07 10:29:30;;;;;;;2.30;1.50;;;16.00;99.90;;;;;;5412476;26;20237;-87
2024/05/07 10:32:01;;;;;;;2.58;1.58;;;16.00;99.90;;;;;;5413630;26;20250;-88
2024/05/07 10:34:39;;;;;;;2.78;1.70;;;16.20;99.90;;;;;;5413874;26;20310;-87
2024/05/07 10:37:12;;;;;;;1.35;1.25;;;16.40;99.90;;;;;;5417312;26;20249;-88
2024/05/07 10:39:41;;;;;;;1.83;1.35;;;16.60;99.90;;;;;;5417199;26;20242;-85
2024/05/07 10:42:14;;;;;;;3.20;1.40;;;16.80;99.90;;;;;;5407633;26;20377;-89
2024/05/07 10:44:44;;;;;;;2.08;1.40;;;16.90;99.90;;;;;;5400388;26;20237;-87
2024/05/07 10:47:14;;;;;;;1.88;1.08;;;17.00;99.90;;;;;;5421225;26;20245;-88
2024/05/07 10:49:56;;;;;;;1.20;0.90;;;17.00;99.90;;;;;;5416887;26;20281;-87
2024/05/07 10:52:30;;;;;;;1.25;0.98;;;17.10;99.90;;;;;;5416630;26;20275;-88
2024/05/07 10:54:58;;;;;;;1.95;1.10;;;17.20;99.90;;;;;;5416169;26;20268;-87
2024/05/07 10:57:26;;;;;;;1.45;1.10;;;17.20;99.90;;;;;;5415024;26;20290;-86
2024/05/07 10:59:55;;;;;;;2.05;1.00;;;17.20;99.90;;;;;;5422320;26;20246;-87
2024/05/07 11:02:25;;;;;;;2.60;1.33;;;17.00;99.90;;;;;;5413862;26;20264;-85
2024/05/07 11:04:54;;;;;;;1.38;1.00;;;17.10;99.90;;;;;;5414077;26;20318;-86
2024/05/07 11:07:24;;;;;;;2.88;1.25;;;17.20;99.90;;;;;;5414388;26;20229;-86
2024/05/07 11:10:05;;;;;;;1.35;1.20;;;17.30;99.90;;;;;;5414148;26;20250;-86
2024/05/07 11:12:34;;;;;;;1.02;0.93;;;17.40;99.90;;;;;;5403340;26;20272;-86
2024/05/07 11:15:03;;;;;;;1.85;1.23;;;17.40;99.90;;;;;;5414844;26;20351;-86
2024/05/07 11:17:32;;;;;;;2.70;1.35;;;17.40;99.90;;;;;;5413945;26;20237;-86
2024/05/07 11:20:11;;;;;;;1.73;1.30;;;17.40;99.90;;;;;;5413404;26;20927;-86
2024/05/07 11:22:47;;;;;;;1.50;1.40;;;17.30;99.90;;;;;;5413594;26;20275;-85
2024/05/07 11:25:18;;;;;;;1.90;1.30;;;17.20;99.90;;;;;;5415663;26;20224;-84
2024/05/07 11:27:47;;;;;;;2.05;1.50;;;17.20;99.90;;;;;;5411773;26;20281;-86
2024/05/07 11:30:20;;;;;;;4.97;1.60;;;17.30;99.90;;;;;;5407128;26;20588;-85
2024/05/07 11:32:49;;;;;;;2.47;1.70;;;17.30;99.90;;;;;;5409169;26;20229;-87
2024/05/07 11:35:18;;;;;;;3.55;1.92;;;17.20;99.90;;;;;;5399366;26;20364;-85
2024/05/07 11:37:47;;;;;;;4.20;1.90;;;17.20;99.90;;;;;;5415257;26;20696;-85
2024/05/07 11:40:18;;;;;;;2.70;1.50;;;17.20;99.90;;;;;;5415479;26;20731;-87
2024/05/07 11:42:47;;;;;;;2.13;1.60;;;17.30;99.90;;;;;;5415883;26;20229;-86
2024/05/07 11:45:16;;;;;;;4.30;1.50;;;17.30;99.90;;;;;;5415906;26;20253;-88
2024/05/07 11:47:45;;;;;;;2.80;1.40;;;17.50;99.90;;;;;;5415777;26;20242;-88
2024/05/07 11:50:14;;;;;;;1.38;1.23;;;17.60;99.90;;;;;;5415740;26;20230;-86
2024/05/07 11:52:43;;;;;;;1.15;1.10;;;17.60;99.90;;;;;;5415862;26;20226;-85
2024/05/07 11:55:11;;;;;;;1.38;1.20;;;17.50;99.90;;;;;;5411693;26;20284;-85
2024/05/07 11:57:45;;;;;;;1.30;1.20;;;17.50;99.90;;;;;;5416173;26;20226;-84
2024/05/07 12:00:14;;;;;;;0.90;0.90;;;17.40;99.90;;;;;;5419695;26;20287;-88
2024/05/07 12:02:43;;;;;;;1.80;1.15;;;17.40;99.90;;;;;;5419609;26;20255;-86
2024/05/07 12:05:12;;;;;;;1.85;0.80;;;17.50;99.90;;;;;;5419438;26;20298;-86
2024/05/07 12:07:42;;;;;;;1.60;0.98;;;17.50;99.90;;;;;;5418481;26;20276;-88
2024/05/07 12:10:12;;;;;;;2.65;1.23;;;17.50;99.90;;;;;;5418663;26;20309;-86
2024/05/07 12:12:44;;;;;;;0.88;0.77;;;17.70;99.90;;;;;;5418732;26;20857;-85
2024/05/07 12:15:13;;;;;;;2.78;1.08;;;17.90;99.90;;;;;;5418942;26;20237;-86
2024/05/07 12:17:42;;;;;;;2.75;0.80;;;18.10;99.90;;;;;;5418712;26;20293;-85
2024/05/07 12:20:11;;;;;;;1.60;1.00;;;18.60;99.90;;;;;;5419650;26;20241;-84
2024/05/07 12:28:11;;;;;;;3.75;1.10;;;19.30;99.90;;;;;;5420919;26;20264;-82
2024/05/07 12:30:40;;;;;;;1.10;1.00;;;19.70;99.90;;;;;;5417313;26;20257;-84
2024/05/07 12:33:11;;;;;;;2.05;1.45;;;20.20;99.90;;;;;;5418024;26;20234;-83
2024/05/07 12:35:40;;;;;;;1.85;1.30;;;20.50;98.20;;;;;;5418150;26;20256;-83
2024/05/07 12:38:09;;;;;;;1.67;1.10;;;20.80;98.50;;;;;;5418107;26;20295;-82
2024/05/07 12:40:38;;;;;;;2.78;1.38;;;20.90;97.30;;;;;;5418053;26;20775;-83
2024/05/07 12:43:07;;;;;;;3.03;1.08;;;20.80;98.40;;;;;;5418064;26;20233;-83
2024/05/07 12:45:39;;;;;;;2.10;1.20;;;20.50;97.00;;;;;;5418107;26;20233;-81
2024/05/07 12:48:08;;;;;;;1.23;1.02;;;20.60;97.90;;;;;;5417884;26;20339;-82
2024/05/07 12:50:37;;;;;;;2.35;1.20;;;20.40;98.00;;;;;;5417712;26;20399;-81
2024/05/07 12:53:06;;;;;;;4.20;1.70;;;20.30;99.20;;;;;;5408438;26;20320;-82
2024/05/07 12:55:36;;;;;;;2.33;1.30;;;19.70;99.00;;;;;;5417779;26;20300;-81
2024/05/07 12:58:06;;;;;;;2.33;1.17;;;19.40;98.80;;;;;;5417639;26;20261;-83
2024/05/07 13:00:38;;;;;;;1.60;1.38;;;19.40;99.90;;;;;;5417462;26;20583;-83
2024/05/07 13:03:08;;;;;;;2.45;1.20;;;19.60;98.90;;;;;;5400522;26;20234;-82
2024/05/07 13:05:38;;;;;;;1.65;1.13;;;20.10;99.90;;;;;;5410035;26;20226;-84